sensor_id;sensor_type;location;lat;lon;timestamp;pressure;altitude;pressure_sealevel;temperature;humidity
45763;BME280;37512;52.408;13.356;2023-04-03T00:01:57;102505.47;;;0.57;100.00
45763;BME280;37512;52.408;13.356;2023-04-03T00:05:59;102510.00;;;0.69;100.00
45763;BME280;37512;52.408;13.356;2023-04-03T00:10:01;102514.34;;;0.70;100.00
45763;BME280;37512;52.408;13.356;2023-04-03T00:14:02;102509.66;;;0.65;100.00
45763;BME280;37512;52.408;13.356;2023-04-03T00:18:04;102512.69;;;0.47;100.00
45763;BME280;37512;52.408;13.356;2023-04-03T00:22:06;102517.47;;;0.56;100.00
45763;BME280;37512;52.408;13.356;2023-04-03T00:26:08;102517.41;;;0.51;100.00
45763;BME280;37512;52.408;13.356;2023-04-03T00:30:12;102517.53;;;0.61;100.00
45763;BME280;37512;52.408;13.356;2023-04-03T00:34:14;102519.94;;;0.58;100.00
45763;BME280;37512;52.408;13.356;2023-04-03T00:38:16;102526.25;;;0.58;100.00
45763;BME280;37512;52.408;13.356;2023-04-03T00:42:17;102518.41;;;0.45;100.00
45763;BME280;37512;52.408;13.356;2023-04-03T00:46:19;102528.00;;;0.48;100.00
45763;BME280;37512;52.408;13.356;2023-04-03T00:50:21;102528.19;;;0.41;100.00
45763;BME280;37512;52.408;13.356;2023-04-03T00:54:22;102521.41;;;0.44;100.00
45763;BME280;37512;52.408;13.356;2023-04-03T00:58:36;102526.94;;;0.49;100.00
45763;BME280;37512;52.408;13.356;2023-04-03T01:02:38;102523.28;;;0.43;100.00
45763;BME280;37512;52.408;13.356;2023-04-03T01:06:42;102527.13;;;0.42;100.00
45763;BME280;37512;52.408;13.356;2023-04-03T01:10:43;102525.22;;;0.43;100.00
45763;BME280;37512;52.408;13.356;2023-04-03T01:14:45;102529.69;;;0.32;100.00
45763;BME280;37512;52.408;13.356;2023-04-03T01:18:47;102527.81;;;0.32;100.00
45763;BME280;37512;52.408;13.356;2023-04-03T01:27:10;102533.44;;;0.26;100.00
45763;BME280;37512;52.408;13.356;2023-04-03T01:35:21;102535.34;;;0.25;100.00
45763;BME280;37512;52.408;13.356;2023-04-03T01:39:22;102534.59;;;0.30;100.00
45763;BME280;37512;52.408;13.356;2023-04-03T01:43:24;102533.69;;;0.24;100.00
45763;BME280;37512;52.408;13.356;2023-04-03T01:47:36;102546.84;;;0.27;100.00
45763;BME280;37512;52.408;13.356;2023-04-03T01:51:38;102544.09;;;0.27;100.00
45763;BME280;37512;52.408;13.356;2023-04-03T01:55:39;102546.34;;;0.30;100.00
45763;BME280;37512;52.408;13.356;2023-04-03T01:59:41;102544.47;;;0.14;100.00
45763;BME280;37512;52.408;13.356;2023-04-03T02:03:42;102544.63;;;0.24;100.00
45763;BME280;37512;52.408;13.356;2023-04-03T02:07:44;102546.28;;;0.25;100.00
45763;BME280;37512;52.408;13.356;2023-04-03T02:11:45;102555.88;;;0.28;100.00
45763;BME280;37512;52.408;13.356;2023-04-03T02:15:47;102554.19;;;0.27;100.00
45763;BME280;37512;52.408;13.356;2023-04-03T02:19:48;102552.97;;;0.17;100.00
45763;BME280;37512;52.408;13.356;2023-04-03T02:23:50;102551.00;;;0.13;100.00
45763;BME280;37512;52.408;13.356;2023-04-03T02:27:52;102547.59;;;0.23;100.00
45763;BME280;37512;52.408;13.356;2023-04-03T02:31:53;102554.25;;;0.10;100.00
45763;BME280;37512;52.408;13.356;2023-04-03T02:35:56;102558.88;;;0.09;100.00
45763;BME280;37512;52.408;13.356;2023-04-03T02:39:57;102566.00;;;-0.07;100.00
45763;BME280;37512;52.408;13.356;2023-04-03T02:43:59;102572.50;;;-0.08;100.00
45763;BME280;37512;52.408;13.356;2023-04-03T02:48:01;102582.03;;;-0.10;100.00
45763;BME280;37512;52.408;13.356;2023-04-03T02:52:02;102580.94;;;-0.09;100.00
45763;BME280;37512;52.408;13.356;2023-04-03T02:56:04;102590.72;;;-0.13;100.00
45763;BME280;37512;52.408;13.356;2023-04-03T03:00:06;102592.78;;;-0.04;100.00
45763;BME280;37512;52.408;13.356;2023-04-03T03:04:07;102591.63;;;-0.08;100.00
45763;BME280;37512;52.408;13.356;2023-04-03T03:08:09;102590.06;;;-0.20;100.00
45763;BME280;37512;52.408;13.356;2023-04-03T03:12:10;102591.13;;;-0.22;100.00
45763;BME280;37512;52.408;13.356;2023-04-03T03:16:12;102596.06;;;-0.18;100.00
45763;BME280;37512;52.408;13.356;2023-04-03T03:20:13;102600.56;;;-0.12;100.00
45763;BME280;37512;52.408;13.356;2023-04-03T03:24:16;102605.69;;;-0.16;100.00
45763;BME280;37512;52.408;13.356;2023-04-03T03:28:17;102603.34;;;-0.24;100.00
45763;BME280;37512;52.408;13.356;2023-04-03T03:32:19;102602.25;;;-0.23;100.00
45763;BME280;37512;52.408;13.356;2023-04-03T03:36:21;102611.19;;;-0.28;100.00
45763;BME280;37512;52.408;13.356;2023-04-03T03:40:22;102607.41;;;-0.27;100.00
45763;BME280;37512;52.408;13.356;2023-04-03T03:44:24;102614.91;;;-0.34;100.00
45763;BME280;37512;52.408;13.356;2023-04-03T03:48:25;102609.25;;;-0.44;100.00
45763;BME280;37512;52.408;13.356;2023-04-03T03:52:27;102607.47;;;-0.38;100.00
45763;BME280;37512;52.408;13.356;2023-04-03T03:56:28;102607.63;;;-0.45;100.00
45763;BME280;37512;52.408;13.356;2023-04-03T04:00:29;102604.06;;;-0.46;100.00
45763;BME280;37512;52.408;13.356;2023-04-03T04:04:31;102603.81;;;-0.44;100.00
45763;BME280;37512;52.408;13.356;2023-04-03T04:08:33;102603.72;;;-0.49;100.00
45763;BME280;37512;52.408;13.356;2023-04-03T04:12:34;102608.34;;;-0.50;100.00
45763;BME280;37512;52.408;13.356;2023-04-03T04:16:36;102604.22;;;-0.52;100.00
45763;BME280;37512;52.408;13.356;2023-04-03T04:20:38;102606.72;;;-0.63;100.00
45763;BME280;37512;52.408;13.356;2023-04-03T04:24:39;102606.97;;;-0.64;100.00
45763;BME280;37512;52.408;13.356;2023-04-03T04:28:41;102612.53;;;-0.59;100.00
45763;BME280;37512;52.408;13.356;2023-04-03T04:32:42;102608.63;;;-0.63;100.00
45763;BME280;37512;52.408;13.356;2023-04-03T04:36:44;102618.72;;;-0.64;100.00
45763;BME280;37512;52.408;13.356;2023-04-03T04:40:47;102622.50;;;-0.65;100.00
45763;BME280;37512;52.408;13.356;2023-04-03T04:44:48;102625.50;;;-0.66;100.00
45763;BME280;37512;52.408;13.356;2023-04-03T04:48:50;102628.09;;;-0.71;100.00
45763;BME280;37512;52.408;13.356;2023-04-03T04:52:52;102630.09;;;-0.67;100.00
45763;BME280;37512;52.408;13.356;2023-04-03T04:56:53;102643.16;;;-0.69;100.00
45763;BME280;37512;52.408;13.356;2023-04-03T05:00:59;102631.50;;;-0.52;100.00
45763;BME280;37512;52.408;13.356;2023-04-03T05:05:01;102641.22;;;-0.56;100.00
45763;BME280;37512;52.408;13.356;2023-04-03T05:09:05;102645.59;;;-0.55;100.00
45763;BME280;37512;52.408;13.356;2023-04-03T05:13:07;102637.19;;;-0.54;100.00
45763;BME280;37512;52.408;13.356;2023-04-03T05:17:08;102641.41;;;-0.46;100.00
45763;BME280;37512;52.408;13.356;2023-04-03T05:21:10;102643.75;;;-0.38;100.00
45763;BME280;37512;52.408;13.356;2023-04-03T05:25:11;102638.97;;;-0.31;100.00
45763;BME280;37512;52.408;13.356;2023-04-03T05:29:13;102641.94;;;-0.32;100.00
45763;BME280;37512;52.408;13.356;2023-04-03T05:33:14;102650.34;;;-0.22;100.00
45763;BME280;37512;52.408;13.356;2023-04-03T05:37:16;102653.38;;;-0.18;100.00
45763;BME280;37512;52.408;13.356;2023-04-03T05:41:18;102651.91;;;-0.09;100.00
45763;BME280;37512;52.408;13.356;2023-04-03T05:45:21;102660.69;;;-0.07;100.00
45763;BME280;37512;52.408;13.356;2023-04-03T05:49:23;102670.13;;;0.02;100.00
45763;BME280;37512;52.408;13.356;2023-04-03T05:53:28;102664.44;;;0.20;100.00
45763;BME280;37512;52.408;13.356;2023-04-03T05:57:30;102662.78;;;0.19;100.00
45763;BME280;37512;52.408;13.356;2023-04-03T06:01:32;102668.09;;;0.26;100.00
45763;BME280;37512;52.408;13.356;2023-04-03T06:05:33;102668.75;;;0.33;100.00
45763;BME280;37512;52.408;13.356;2023-04-03T06:09:35;102682.91;;;0.47;100.00
45763;BME280;37512;52.408;13.356;2023-04-03T06:13:36;102679.59;;;0.45;100.00
45763;BME280;37512;52.408;13.356;2023-04-03T06:17:38;102678.94;;;0.55;100.00
45763;BME280;37512;52.408;13.356;2023-04-03T06:21:39;102675.47;;;0.59;100.00
45763;BME280;37512;52.408;13.356;2023-04-03T06:25:41;102682.06;;;0.63;100.00
45763;BME280;37512;52.408;13.356;2023-04-03T06:29:43;102687.94;;;0.72;100.00
45763;BME280;37512;52.408;13.356;2023-04-03T06:33:46;102692.66;;;0.77;100.00
45763;BME280;37512;52.408;13.356;2023-04-03T06:37:47;102686.44;;;0.98;100.00
45763;BME280;37512;52.408;13.356;2023-04-03T06:41:49;102684.75;;;0.97;100.00
45763;BME280;37512;52.408;13.356;2023-04-03T06:45:52;102704.06;;;1.08;100.00
45763;BME280;37512;52.408;13.356;2023-04-03T06:49:54;102702.09;;;1.25;97.90
45763;BME280;37512;52.408;13.356;2023-04-03T06:53:58;102706.88;;;1.35;95.93
45763;BME280;37512;52.408;13.356;2023-04-03T06:57:59;102710.75;;;1.39;93.71
45763;BME280;37512;52.408;13.356;2023-04-03T07:02:02;102708.09;;;1.44;89.91
45763;BME280;37512;52.408;13.356;2023-04-03T07:06:05;102716.75;;;1.58;87.06
45763;BME280;37512;52.408;13.356;2023-04-03T07:10:08;102716.78;;;1.63;84.16
45763;BME280;37512;52.408;13.356;2023-04-03T07:14:11;102732.22;;;1.69;80.41
45763;BME280;37512;52.408;13.356;2023-04-03T07:18:12;102726.59;;;1.81;77.46
45763;BME280;37512;52.408;13.356;2023-04-03T07:22:14;102725.88;;;1.91;76.00
45763;BME280;37512;52.408;13.356;2023-04-03T07:26:15;102732.09;;;2.08;76.25
45763;BME280;37512;52.408;13.356;2023-04-03T07:30:17;102737.78;;;2.28;73.64
45763;BME280;37512;52.408;13.356;2023-04-03T07:34:18;102741.63;;;2.33;68.98
45763;BME280;37512;52.408;13.356;2023-04-03T07:38:20;102750.34;;;2.57;68.46
45763;BME280;37512;52.408;13.356;2023-04-03T07:42:21;102743.00;;;3.00;67.42
45763;BME280;37512;52.408;13.356;2023-04-03T07:46:23;102739.63;;;3.35;65.79
45763;BME280;37512;52.408;13.356;2023-04-03T07:50:25;102745.56;;;3.17;63.12
45763;BME280;37512;52.408;13.356;2023-04-03T07:54:27;102744.75;;;3.16;60.59
45763;BME280;37512;52.408;13.356;2023-04-03T07:58:29;102755.13;;;3.56;60.90
45763;BME280;37512;52.408;13.356;2023-04-03T08:02:31;102752.53;;;3.34;57.40
45763;BME280;37512;52.408;13.356;2023-04-03T08:06:33;102748.28;;;3.11;58.03
45763;BME280;37512;52.408;13.356;2023-04-03T08:10:51;102749.41;;;3.16;59.95
45763;BME280;37512;52.408;13.356;2023-04-03T08:14:53;102751.38;;;3.25;57.63
45763;BME280;37512;52.408;13.356;2023-04-03T08:18:55;102744.63;;;3.01;58.49
45763;BME280;37512;52.408;13.356;2023-04-03T08:22:57;102743.03;;;3.05;59.79
45763;BME280;37512;52.408;13.356;2023-04-03T08:26:58;102748.75;;;3.03;60.34
45763;BME280;37512;52.408;13.356;2023-04-03T08:31:04;102737.88;;;3.13;60.55
45763;BME280;37512;52.408;13.356;2023-04-03T08:35:07;102736.69;;;2.99;60.28
45763;BME280;37512;52.408;13.356;2023-04-03T08:39:10;102740.28;;;3.58;62.33
45763;BME280;37512;52.408;13.356;2023-04-03T08:47:42;102734.59;;;3.74;58.51
45763;BME280;37512;52.408;13.356;2023-04-03T08:51:48;102731.81;;;3.64;56.85
45763;BME280;37512;52.408;13.356;2023-04-03T08:55:53;102744.47;;;3.75;56.85
45763;BME280;37512;52.408;13.356;2023-04-03T08:59:57;102738.31;;;3.43;54.69
45763;BME280;37512;52.408;13.356;2023-04-03T09:04:01;102735.88;;;3.51;54.37
45763;BME280;37512;52.408;13.356;2023-04-03T09:08:27;102741.06;;;3.48;54.58
45763;BME280;37512;52.408;13.356;2023-04-03T09:12:34;102741.13;;;3.58;55.48
45763;BME280;37512;52.408;13.356;2023-04-03T09:17:00;102743.00;;;3.47;55.35
45763;BME280;37512;52.408;13.356;2023-04-03T09:25:31;102748.09;;;3.91;54.77
45763;BME280;37512;52.408;13.356;2023-04-03T09:29:39;102749.72;;;3.77;54.81
45763;BME280;37512;52.408;13.356;2023-04-03T09:33:41;102744.59;;;4.06;56.02
45763;BME280;37512;52.408;13.356;2023-04-03T09:37:48;102740.50;;;4.86;52.86
45763;BME280;37512;52.408;13.356;2023-04-03T09:42:03;102743.25;;;4.55;49.67
45763;BME280;37512;52.408;13.356;2023-04-03T09:46:28;102739.66;;;4.49;49.69
45763;BME280;37512;52.408;13.356;2023-04-03T09:50:32;102742.41;;;4.85;49.42
45763;BME280;37512;52.408;13.356;2023-04-03T09:54:35;102729.44;;;5.06;49.53
45763;BME280;37512;52.408;13.356;2023-04-03T09:58:40;102725.38;;;4.88;47.35
45763;BME280;37512;52.408;13.356;2023-04-03T10:02:55;102722.75;;;5.38;48.41
45763;BME280;37512;52.408;13.356;2023-04-03T10:07:00;102724.25;;;5.80;48.54
45763;BME280;37512;52.408;13.356;2023-04-03T10:11:13;102714.41;;;6.18;46.16
45763;BME280;37512;52.408;13.356;2023-04-03T10:15:18;102718.06;;;6.03;45.54
45763;BME280;37512;52.408;13.356;2023-04-03T10:19:39;102716.19;;;5.94;46.27
45763;BME280;37512;52.408;13.356;2023-04-03T10:23:46;102707.09;;;5.98;46.55
45763;BME280;37512;52.408;13.356;2023-04-03T10:28:09;102705.56;;;5.66;48.17
45763;BME280;37512;52.408;13.356;2023-04-03T10:36:28;102705.19;;;5.34;48.28
45763;BME280;37512;52.408;13.356;2023-04-03T10:58:01;102696.72;;;4.99;47.87
45763;BME280;37512;52.408;13.356;2023-04-03T11:02:11;102684.13;;;4.73;49.49
45763;BME280;37512;52.408;13.356;2023-04-03T11:06:18;102680.25;;;4.74;48.42
45763;BME280;37512;52.408;13.356;2023-04-03T11:10:48;102679.44;;;4.68;49.25
45763;BME280;37512;52.408;13.356;2023-04-03T11:14:53;102678.81;;;5.07;49.61
45763;BME280;37512;52.408;13.356;2023-04-03T11:19:02;102669.22;;;4.94;49.23
45763;BME280;37512;52.408;13.356;2023-04-03T11:23:13;102683.16;;;5.23;47.98
45763;BME280;37512;52.408;13.356;2023-04-03T11:27:23;102665.69;;;4.84;47.57
45763;BME280;37512;52.408;13.356;2023-04-03T11:35:47;102660.13;;;4.99;49.47
45763;BME280;37512;52.408;13.356;2023-04-03T11:39:57;102669.72;;;5.12;49.53
45763;BME280;37512;52.408;13.356;2023-04-03T11:44:03;102660.88;;;5.80;48.69
45763;BME280;37512;52.408;13.356;2023-04-03T11:48:06;102658.75;;;5.66;48.82
45763;BME280;37512;52.408;13.356;2023-04-03T11:56:44;102652.25;;;5.42;49.09
45763;BME280;37512;52.408;13.356;2023-04-03T12:00:49;102655.56;;;5.39;50.71
45763;BME280;37512;52.408;13.356;2023-04-03T12:05:26;102651.19;;;5.33;50.31
45763;BME280;37512;52.408;13.356;2023-04-03T12:09:33;102655.81;;;5.48;50.58
45763;BME280;37512;52.408;13.356;2023-04-03T12:17:38;102657.63;;;5.68;49.26
45763;BME280;37512;52.408;13.356;2023-04-03T12:26:04;102653.34;;;5.46;49.32
45763;BME280;37512;52.408;13.356;2023-04-03T12:30:16;102656.22;;;5.20;51.68
45763;BME280;37512;52.408;13.356;2023-04-03T12:34:35;102649.69;;;4.96;52.06
45763;BME280;37512;52.408;13.356;2023-04-03T12:43:09;102644.03;;;5.37;49.88
45763;BME280;37512;52.408;13.356;2023-04-03T12:47:29;102646.88;;;5.11;49.47
45763;BME280;37512;52.408;13.356;2023-04-03T12:51:38;102634.78;;;5.07;49.60
45763;BME280;37512;52.408;13.356;2023-04-03T12:55:41;102638.41;;;4.97;49.64
45763;BME280;37512;52.408;13.356;2023-04-03T12:59:43;102634.63;;;4.63;51.49
45763;BME280;37512;52.408;13.356;2023-04-03T13:03:56;102633.81;;;4.57;52.54
45763;BME280;37512;52.408;13.356;2023-04-03T13:08:01;102633.50;;;5.44;55.45
45763;BME280;37512;52.408;13.356;2023-04-03T13:12:13;102623.63;;;5.38;49.01
45763;BME280;37512;52.408;13.356;2023-04-03T13:16:16;102627.88;;;5.10;48.25
45763;BME280;37512;52.408;13.356;2023-04-03T13:20:25;102628.09;;;5.23;49.58
45763;BME280;37512;52.408;13.356;2023-04-03T13:24:28;102624.81;;;5.21;48.41
45763;BME280;37512;52.408;13.356;2023-04-03T13:28:32;102619.84;;;5.23;47.94
45763;BME280;37512;52.408;13.356;2023-04-03T13:32:34;102618.63;;;5.50;47.96
45763;BME280;37512;52.408;13.356;2023-04-03T13:36:38;102615.09;;;5.39;47.48
45763;BME280;37512;52.408;13.356;2023-04-03T13:40:54;102610.19;;;5.26;48.54
45763;BME280;37512;52.408;13.356;2023-04-03T13:45:19;102611.06;;;5.16;49.55
45763;BME280;37512;52.408;13.356;2023-04-03T13:53:24;102601.91;;;5.36;50.41
45763;BME280;37512;52.408;13.356;2023-04-03T13:57:26;102601.59;;;5.38;48.98
45763;BME280;37512;52.408;13.356;2023-04-03T14:06:07;102595.28;;;4.67;50.38
45763;BME280;37512;52.408;13.356;2023-04-03T14:10:09;102598.28;;;4.76;51.13
45763;BME280;37512;52.408;13.356;2023-04-03T14:14:17;102586.44;;;4.80;51.31
45763;BME280;37512;52.408;13.356;2023-04-03T14:18:19;102598.00;;;4.77;51.71
45763;BME280;37512;52.408;13.356;2023-04-03T14:22:26;102600.25;;;4.45;51.96
45763;BME280;37512;52.408;13.356;2023-04-03T14:26:28;102598.25;;;4.81;52.26
45763;BME280;37512;52.408;13.356;2023-04-03T14:30:33;102598.22;;;4.96;52.74
45763;BME280;37512;52.408;13.356;2023-04-03T14:34:34;102595.22;;;4.93;51.67
45763;BME280;37512;52.408;13.356;2023-04-03T14:38:36;102593.75;;;5.16;51.90
45763;BME280;37512;52.408;13.356;2023-04-03T14:42:37;102594.97;;;5.44;49.60
45763;BME280;37512;52.408;13.356;2023-04-03T14:46:42;102589.72;;;5.48;49.24
45763;BME280;37512;52.408;13.356;2023-04-03T14:50:50;102590.16;;;6.34;47.63
45763;BME280;37512;52.408;13.356;2023-04-03T14:55:06;102585.38;;;8.72;43.22
45763;BME280;37512;52.408;13.356;2023-04-03T14:59:10;102572.66;;;9.49;40.77
45763;BME280;37512;52.408;13.356;2023-04-03T15:03:14;102592.63;;;8.40;42.33
45763;BME280;37512;52.408;13.356;2023-04-03T15:07:16;102585.47;;;7.49;43.83
45763;BME280;37512;52.408;13.356;2023-04-03T15:11:18;102583.47;;;6.69;46.08
45763;BME280;37512;52.408;13.356;2023-04-03T15:15:21;102577.75;;;6.02;47.48
45763;BME280;37512;52.408;13.356;2023-04-03T15:19:23;102583.22;;;5.68;49.76
45763;BME280;37512;52.408;13.356;2023-04-03T15:23:24;102574.56;;;5.50;51.21
45763;BME280;37512;52.408;13.356;2023-04-03T15:27:27;102567.59;;;5.13;52.30
45763;BME280;37512;52.408;13.356;2023-04-03T15:31:29;102577.84;;;4.92;53.51
45763;BME280;37512;52.408;13.356;2023-04-03T15:35:31;102577.13;;;4.66;55.63
45763;BME280;37512;52.408;13.356;2023-04-03T15:39:32;102577.16;;;4.61;56.68
45763;BME280;37512;52.408;13.356;2023-04-03T15:43:34;102575.47;;;4.65;57.04
45763;BME280;37512;52.408;13.356;2023-04-03T15:47:36;102580.22;;;4.39;58.79
45763;BME280;37512;52.408;13.356;2023-04-03T15:51:38;102575.31;;;4.15;61.09
45763;BME280;37512;52.408;13.356;2023-04-03T15:55:40;102576.13;;;4.16;61.11
45763;BME280;37512;52.408;13.356;2023-04-03T15:59:42;102577.22;;;4.25;61.56
45763;BME280;37512;52.408;13.356;2023-04-03T16:03:44;102581.63;;;4.16;61.49
45763;BME280;37512;52.408;13.356;2023-04-03T16:07:47;102578.59;;;4.02;64.52
45763;BME280;37512;52.408;13.356;2023-04-03T16:11:48;102573.91;;;4.08;64.96
45763;BME280;37512;52.408;13.356;2023-04-03T16:15:50;102569.00;;;3.79;62.95
45763;BME280;37512;52.408;13.356;2023-04-03T16:19:52;102576.13;;;3.95;63.46
45763;BME280;37512;52.408;13.356;2023-04-03T16:23:56;102579.16;;;3.89;62.96
45763;BME280;37512;52.408;13.356;2023-04-03T16:27:58;102581.59;;;3.85;65.07
45763;BME280;37512;52.408;13.356;2023-04-03T16:31:59;102575.00;;;3.71;62.50
45763;BME280;37512;52.408;13.356;2023-04-03T16:36:01;102580.81;;;4.15;62.95
45763;BME280;37512;52.408;13.356;2023-04-03T16:40:03;102591.75;;;5.32;58.63
45763;BME280;37512;52.408;13.356;2023-04-03T16:44:06;102581.94;;;5.99;54.66
45763;BME280;37512;52.408;13.356;2023-04-03T16:48:08;102576.25;;;5.41;54.91
45763;BME280;37512;52.408;13.356;2023-04-03T16:52:10;102583.34;;;4.92;56.36
45763;BME280;37512;52.408;13.356;2023-04-03T16:56:12;102579.09;;;4.50;58.52
45763;BME280;37512;52.408;13.356;2023-04-03T17:00:14;102579.34;;;4.59;58.89
45763;BME280;37512;52.408;13.356;2023-04-03T17:04:16;102574.44;;;4.35;58.02
45763;BME280;37512;52.408;13.356;2023-04-03T17:08:18;102568.41;;;4.08;59.05
45763;BME280;37512;52.408;13.356;2023-04-03T17:12:20;102569.00;;;4.00;60.53
45763;BME280;37512;52.408;13.356;2023-04-03T17:16:23;102568.72;;;3.96;62.39
45763;BME280;37512;52.408;13.356;2023-04-03T17:20:25;102575.59;;;3.83;64.69
45763;BME280;37512;52.408;13.356;2023-04-03T17:24:27;102565.69;;;3.77;65.47
45763;BME280;37512;52.408;13.356;2023-04-03T17:28:29;102569.53;;;3.71;66.26
45763;BME280;37512;52.408;13.356;2023-04-03T17:32:30;102575.56;;;3.63;67.40
45763;BME280;37512;52.408;13.356;2023-04-03T17:36:32;102569.53;;;3.71;67.96
45763;BME280;37512;52.408;13.356;2023-04-03T17:40:34;102576.66;;;3.56;69.29
45763;BME280;37512;52.408;13.356;2023-04-03T17:44:36;102582.41;;;3.55;68.02
45763;BME280;37512;52.408;13.356;2023-04-03T17:48:39;102579.09;;;3.43;68.91
45763;BME280;37512;52.408;13.356;2023-04-03T17:52:41;102585.41;;;3.53;70.52
45763;BME280;37512;52.408;13.356;2023-04-03T17:56:43;102586.78;;;3.51;70.55
45763;BME280;37512;52.408;13.356;2023-04-03T18:00:48;102595.56;;;3.53;70.47
45763;BME280;37512;52.408;13.356;2023-04-03T18:04:51;102591.44;;;3.50;71.36
45763;BME280;37512;52.408;13.356;2023-04-03T18:08:55;102586.78;;;3.41;72.37
45763;BME280;37512;52.408;13.356;2023-04-03T18:12:59;102594.44;;;3.44;73.01
45763;BME280;37512;52.408;13.356;2023-04-03T18:17:00;102595.25;;;3.29;74.74
45763;BME280;37512;52.408;13.356;2023-04-03T18:21:02;102601.56;;;3.29;74.68
45763;BME280;37512;52.408;13.356;2023-04-03T18:25:04;102597.13;;;3.18;76.42
45763;BME280;37512;52.408;13.356;2023-04-03T18:29:07;102594.31;;;3.08;77.57
45763;BME280;37512;52.408;13.356;2023-04-03T18:33:09;102605.59;;;3.11;78.82
45763;BME280;37512;52.408;13.356;2023-04-03T18:37:11;102606.72;;;3.10;79.04
45763;BME280;37512;52.408;13.356;2023-04-03T18:41:13;102606.78;;;3.31;79.64
45763;BME280;37512;52.408;13.356;2023-04-03T18:45:16;102606.16;;;3.13;78.75
45763;BME280;37512;52.408;13.356;2023-04-03T18:49:20;102603.66;;;3.07;78.77
45763;BME280;37512;52.408;13.356;2023-04-03T18:53:22;102610.22;;;3.01;78.86
45763;BME280;37512;52.408;13.356;2023-04-03T18:57:23;102601.13;;;2.90;79.18
45763;BME280;37512;52.408;13.356;2023-04-03T19:01:26;102608.75;;;2.83;80.82
45763;BME280;37512;52.408;13.356;2023-04-03T19:05:28;102607.66;;;2.79;82.29
45763;BME280;37512;52.408;13.356;2023-04-03T19:09:31;102601.88;;;2.75;81.90
45763;BME280;37512;52.408;13.356;2023-04-03T19:13:33;102600.69;;;2.61;82.99
45763;BME280;37512;52.408;13.356;2023-04-03T19:17:35;102597.41;;;2.59;83.74
45763;BME280;37512;52.408;13.356;2023-04-03T19:21:37;102588.91;;;2.60;83.88
45763;BME280;37512;52.408;13.356;2023-04-03T19:25:41;102593.84;;;2.58;85.62
45763;BME280;37512;52.408;13.356;2023-04-03T19:29:43;102588.28;;;2.48;85.74
45763;BME280;37512;52.408;13.356;2023-04-03T19:33:45;102596.13;;;2.34;88.84
45763;BME280;37512;52.408;13.356;2023-04-03T19:37:47;102587.66;;;2.36;90.79
45763;BME280;37512;52.408;13.356;2023-04-03T19:41:51;102586.50;;;2.26;92.84
45763;BME280;37512;52.408;13.356;2023-04-03T19:45:52;102583.81;;;2.37;94.19
45763;BME280;37512;52.408;13.356;2023-04-03T19:49:57;102589.28;;;2.37;95.36
45763;BME280;37512;52.408;13.356;2023-04-03T19:53:59;102589.25;;;2.26;96.25
45763;BME280;37512;52.408;13.356;2023-04-03T19:58:01;102583.97;;;2.20;97.39
45763;BME280;37512;52.408;13.356;2023-04-03T20:02:02;102592.09;;;2.42;97.49
45763;BME280;37512;52.408;13.356;2023-04-03T20:06:04;102597.72;;;2.25;98.28
45763;BME280;37512;52.408;13.356;2023-04-03T20:10:06;102597.72;;;2.25;98.63
45763;BME280;37512;52.408;13.356;2023-04-03T20:14:07;102599.59;;;2.19;99.86
45763;BME280;37512;52.408;13.356;2023-04-03T20:18:12;102594.19;;;2.29;100.00
45763;BME280;37512;52.408;13.356;2023-04-03T20:22:17;102602.44;;;2.35;100.00
45763;BME280;37512;52.408;13.356;2023-04-03T20:26:22;102596.81;;;2.51;99.62
45763;BME280;37512;52.408;13.356;2023-04-03T20:30:24;102599.41;;;2.31;100.00
45763;BME280;37512;52.408;13.356;2023-04-03T20:34:26;102598.59;;;2.30;100.00
45763;BME280;37512;52.408;13.356;2023-04-03T20:38:28;102592.22;;;2.25;99.79
45763;BME280;37512;52.408;13.356;2023-04-03T20:42:29;102592.56;;;2.34;98.59
45763;BME280;37512;52.408;13.356;2023-04-03T20:46:31;102586.50;;;2.26;98.95
45763;BME280;37512;52.408;13.356;2023-04-03T20:50:52;102588.66;;;2.24;98.58
45763;BME280;37512;52.408;13.356;2023-04-03T20:54:54;102576.91;;;2.29;99.15
45763;BME280;37512;52.408;13.356;2023-04-03T20:58:55;102582.69;;;2.33;99.84
45763;BME280;37512;52.408;13.356;2023-04-03T21:02:58;102576.38;;;2.80;100.00
45763;BME280;37512;52.408;13.356;2023-04-03T21:20:22;102563.31;;;2.07;99.73
45763;BME280;37512;52.408;13.356;2023-04-03T21:24:24;102566.59;;;2.04;99.64
45763;BME280;37512;52.408;13.356;2023-04-03T21:28:25;102565.66;;;1.88;98.97
45763;BME280;37512;52.408;13.356;2023-04-03T21:32:27;102576.81;;;1.81;99.63
45763;BME280;37512;52.408;13.356;2023-04-03T21:36:39;102572.13;;;1.77;98.79
45763;BME280;37512;52.408;13.356;2023-04-03T21:40:41;102572.25;;;1.60;100.00
45763;BME280;37512;52.408;13.356;2023-04-03T21:44:46;102576.09;;;1.64;100.00
45763;BME280;37512;52.408;13.356;2023-04-03T21:48:49;102571.94;;;1.56;100.00
45763;BME280;37512;52.408;13.356;2023-04-03T21:52:52;102572.25;;;1.60;99.69
45763;BME280;37512;52.408;13.356;2023-04-03T21:56:54;102570.22;;;1.50;99.57
45763;BME280;37512;52.408;13.356;2023-04-03T22:00:55;102567.63;;;1.38;100.00
45763;BME280;37512;52.408;13.356;2023-04-03T22:04:57;102570.63;;;1.37;100.00
45763;BME280;37512;52.408;13.356;2023-04-03T22:08:59;102568.03;;;1.25;100.00
45763;BME280;37512;52.408;13.356;2023-04-03T22:13:00;102558.00;;;1.09;100.00
45763;BME280;37512;52.408;13.356;2023-04-03T22:17:02;102559.22;;;1.18;99.94
45763;BME280;37512;52.408;13.356;2023-04-03T22:21:04;102562.34;;;1.04;99.68
45763;BME280;37512;52.408;13.356;2023-04-03T22:25:08;102562.19;;;0.89;99.99
45763;BME280;37512;52.408;13.356;2023-04-03T22:29:10;102563.56;;;0.92;98.86